createdAt,value
2019-03-31T00:01:07.530Z,20.79
2019-03-31T00:01:58.183Z,20.69
2019-03-31T00:02:57.249Z,20.68
2019-03-31T00:03:57.257Z,20.76
2019-03-31T00:04:57.289Z,20.69
2019-03-31T00:05:57.332Z,20.77
2019-03-31T00:06:57.216Z,20.72
2019-03-31T00:07:57.238Z,20.74
2019-03-31T00:08:57.253Z,20.79
2019-03-31T00:09:57.201Z,20.76
2019-03-31T00:11:00.447Z,20.79
2019-03-31T00:11:57.211Z,20.65
2019-03-31T00:12:57.164Z,20.68
2019-03-31T00:13:57.158Z,20.69
2019-03-31T00:14:57.154Z,20.79
2019-03-31T00:15:57.199Z,20.68
2019-03-31T00:16:57.117Z,20.68
2019-03-31T00:17:57.145Z,20.77
2019-03-31T00:18:57.103Z,20.69
2019-03-31T00:19:57.093Z,20.65
2019-03-31T00:20:57.049Z,20.68
2019-03-31T00:21:57.042Z,20.65
2019-03-31T00:22:57.035Z,20.68
2019-03-31T00:23:57.068Z,20.62
2019-03-31T00:24:57.010Z,20.71
2019-03-31T00:25:57.019Z,20.72
2019-03-31T00:26:57.017Z,20.68
2019-03-31T00:27:56.992Z,20.71
2019-03-31T00:28:56.998Z,20.64
2019-03-31T00:29:57.033Z,20.66
2019-03-31T00:30:56.964Z,20.68
2019-03-31T00:31:56.937Z,20.66
2019-03-31T00:32:56.921Z,20.66
2019-03-31T00:33:56.914Z,20.71
2019-03-31T00:34:56.907Z,20.59
2019-03-31T00:35:57.425Z,20.65
2019-03-31T00:36:56.895Z,20.65
2019-03-31T00:37:56.882Z,20.72
2019-03-31T00:38:56.862Z,20.64
2019-03-31T00:39:56.875Z,20.62
2019-03-31T00:40:56.899Z,20.66
2019-03-31T00:41:56.823Z,20.66
2019-03-31T00:42:56.835Z,20.76
2019-03-31T00:43:56.828Z,20.65
2019-03-31T00:44:56.840Z,20.61
2019-03-31T00:45:56.808Z,20.65
2019-03-31T00:46:56.842Z,20.56
2019-03-31T00:47:56.778Z,20.54
2019-03-31T00:48:56.763Z,20.66
2019-03-31T00:49:56.754Z,20.58
2019-03-31T00:50:56.640Z,20.65
2019-03-31T00:51:56.653Z,20.58
2019-03-31T00:52:56.865Z,20.62
2019-03-31T00:53:56.693Z,20.58
2019-03-31T00:54:56.679Z,20.58
2019-03-31T00:55:56.584Z,20.61
2019-03-31T00:56:56.661Z,20.69
2019-03-31T00:57:56.696Z,20.62
2019-03-31T00:58:56.700Z,20.64
2019-03-31T00:59:56.665Z,20.62
2019-03-31T01:00:56.636Z,20.64
2019-03-31T01:01:56.519Z,20.68
2019-03-31T01:02:56.638Z,20.61
2019-03-31T01:03:56.600Z,20.68
2019-03-31T01:04:56.607Z,20.65
2019-03-31T01:05:56.568Z,20.69
2019-03-31T01:06:56.580Z,20.59
2019-03-31T01:07:56.578Z,20.65
2019-03-31T01:08:56.538Z,20.62
2019-03-31T01:09:56.561Z,20.64
2019-03-31T01:10:56.539Z,20.61
2019-03-31T01:11:56.521Z,20.59
2019-03-31T01:12:56.506Z,20.69
2019-03-31T01:13:56.494Z,20.56
2019-03-31T01:14:56.471Z,20.65
2019-03-31T01:15:56.491Z,20.64
2019-03-31T01:16:56.459Z,20.62
2019-03-31T01:17:56.435Z,20.68
2019-03-31T01:18:56.407Z,20.65
2019-03-31T01:19:56.399Z,20.68
2019-03-31T01:20:56.413Z,20.66
2019-03-31T01:21:56.421Z,20.58
2019-03-31T01:22:56.375Z,20.56
2019-03-31T01:23:56.365Z,20.54
2019-03-31T01:24:56.352Z,20.58
2019-03-31T01:25:56.347Z,20.59
2019-03-31T01:26:56.332Z,20.66
2019-03-31T01:27:56.359Z,20.58
2019-03-31T01:28:56.302Z,20.65
2019-03-31T01:29:56.305Z,20.69
2019-03-31T01:30:56.282Z,20.65
2019-03-31T01:31:56.318Z,20.56
2019-03-31T01:32:56.282Z,20.51
2019-03-31T01:33:56.318Z,20.65
2019-03-31T01:34:56.365Z,20.54
2019-03-31T01:35:56.222Z,20.61
2019-03-31T01:36:56.233Z,20.61
2019-03-31T01:37:56.206Z,20.53
2019-03-31T01:38:56.213Z,20.59
2019-03-31T01:39:56.230Z,20.58
2019-03-31T01:40:56.204Z,20.53
2019-03-31T01:41:57.031Z,20.61
2019-03-31T01:42:56.238Z,20.53
2019-03-31T01:43:57.977Z,20.49
2019-03-31T01:44:56.399Z,20.61
2019-03-31T01:45:56.086Z,20.53
2019-03-31T01:46:56.111Z,20.58
2019-03-31T01:47:57.185Z,20.56
2019-03-31T01:48:56.226Z,20.56
2019-03-31T01:49:56.103Z,20.47
2019-03-31T01:50:56.145Z,20.54
2019-03-31T01:51:56.475Z,20.50
2019-03-31T01:52:56.073Z,20.51
2019-03-31T01:53:56.036Z,20.50
2019-03-31T01:54:56.022Z,20.53
2019-03-31T01:55:56.023Z,20.50
2019-03-31T01:56:56.017Z,20.58
2019-03-31T01:57:56.042Z,20.54
2019-03-31T01:58:56.023Z,20.56
2019-03-31T01:59:55.963Z,20.54
2019-03-31T02:00:55.958Z,20.50
2019-03-31T02:02:04.175Z,20.50
2019-03-31T02:02:56.992Z,20.51
2019-03-31T02:03:55.914Z,20.51
2019-03-31T02:04:55.910Z,20.53
2019-03-31T02:05:55.970Z,20.54
2019-03-31T02:06:55.894Z,20.53
2019-03-31T02:07:55.873Z,20.54
2019-03-31T02:08:55.907Z,20.49
2019-03-31T02:09:55.911Z,20.51
2019-03-31T02:10:55.848Z,20.47
2019-03-31T02:11:55.830Z,20.49
2019-03-31T02:12:55.826Z,20.50
2019-03-31T02:13:55.828Z,20.49
2019-03-31T02:14:55.878Z,20.50
2019-03-31T02:15:55.828Z,20.53
2019-03-31T02:16:55.772Z,20.46
2019-03-31T02:17:55.761Z,20.46
2019-03-31T02:18:55.765Z,20.41
2019-03-31T02:19:55.741Z,20.47
2019-03-31T02:20:55.760Z,20.47
2019-03-31T02:21:55.764Z,20.46
2019-03-31T02:22:55.717Z,20.42
2019-03-31T02:23:55.706Z,20.42
2019-03-31T02:24:55.693Z,20.50
2019-03-31T02:25:55.680Z,20.46
2019-03-31T02:26:55.659Z,20.42
2019-03-31T02:27:55.709Z,20.43
2019-03-31T02:28:55.646Z,20.43
2019-03-31T02:29:55.634Z,20.46
2019-03-31T02:30:55.629Z,20.39
2019-03-31T02:31:55.628Z,20.46
2019-03-31T02:32:55.611Z,20.43
2019-03-31T02:33:55.632Z,20.47
2019-03-31T02:34:55.583Z,20.43
2019-03-31T02:35:55.574Z,20.46
2019-03-31T02:36:55.577Z,20.49
2019-03-31T02:37:55.670Z,20.47
2019-03-31T02:38:55.624Z,20.49
2019-03-31T02:39:55.660Z,20.42
2019-03-31T02:40:55.557Z,20.49
2019-03-31T02:41:55.503Z,20.46
2019-03-31T02:42:55.491Z,20.50
2019-03-31T02:43:55.556Z,20.41
2019-03-31T02:44:55.593Z,20.35
2019-03-31T02:45:55.511Z,20.35
2019-03-31T02:46:55.460Z,20.42
2019-03-31T02:47:55.423Z,20.34
2019-03-31T02:48:55.422Z,20.39
2019-03-31T02:49:55.417Z,20.35
2019-03-31T02:50:55.410Z,20.34
2019-03-31T02:51:55.435Z,20.35
2019-03-31T02:52:55.376Z,20.42
2019-03-31T02:53:55.355Z,20.42
2019-03-31T02:54:55.367Z,20.42
2019-03-31T02:55:55.394Z,20.42
2019-03-31T02:56:55.367Z,20.47
2019-03-31T02:57:55.407Z,20.39
2019-03-31T02:58:55.333Z,20.39
2019-03-31T02:59:55.314Z,20.39
2019-03-31T03:00:55.300Z,20.41
2019-03-31T03:01:55.315Z,20.31
2019-03-31T03:02:55.285Z,20.41
2019-03-31T03:03:55.317Z,20.43
2019-03-31T03:04:55.262Z,20.46
2019-03-31T03:05:55.261Z,20.34
2019-03-31T03:06:55.337Z,20.39
2019-03-31T03:07:55.215Z,20.38
2019-03-31T03:08:55.206Z,20.46
2019-03-31T03:09:55.234Z,20.47
2019-03-31T03:10:55.191Z,20.33
2019-03-31T03:11:55.189Z,20.42
2019-03-31T03:12:55.193Z,20.39
2019-03-31T03:13:55.161Z,20.38
2019-03-31T03:14:55.159Z,20.30
2019-03-31T03:15:55.202Z,20.35
2019-03-31T03:16:55.139Z,20.34
2019-03-31T03:17:55.151Z,20.31
2019-03-31T03:18:55.081Z,20.41
2019-03-31T03:19:55.087Z,20.39
2019-03-31T03:20:55.065Z,20.33
2019-03-31T03:21:55.101Z,20.41
2019-03-31T03:22:55.046Z,20.39
2019-03-31T03:23:55.045Z,20.43
2019-03-31T03:24:55.053Z,20.34
2019-03-31T03:25:56.766Z,20.25
2019-03-31T03:26:54.933Z,20.30
2019-03-31T03:27:55.030Z,20.35
2019-03-31T03:28:55.032Z,20.28
2019-03-31T03:29:54.979Z,20.34
2019-03-31T03:30:55.290Z,20.35
2019-03-31T03:31:54.957Z,20.33
2019-03-31T03:33:13.935Z,20.31
2019-03-31T03:33:56.061Z,20.34
2019-03-31T03:34:54.914Z,20.33
2019-03-31T03:35:54.912Z,20.28
2019-03-31T03:36:54.894Z,20.30
2019-03-31T03:37:54.885Z,20.31
2019-03-31T03:38:54.794Z,20.28
2019-03-31T03:39:54.911Z,20.30
2019-03-31T03:40:54.858Z,20.31
2019-03-31T03:41:54.829Z,20.33
2019-03-31T03:42:54.813Z,20.34
2019-03-31T03:43:57.058Z,20.34
2019-03-31T03:44:55.874Z,20.31
2019-03-31T03:45:54.841Z,20.30
2019-03-31T03:46:54.780Z,20.23
2019-03-31T03:47:54.779Z,20.24
2019-03-31T03:48:54.786Z,20.30
2019-03-31T03:49:54.762Z,20.31
2019-03-31T03:50:54.782Z,20.25
2019-03-31T03:51:54.727Z,20.30
2019-03-31T03:52:54.759Z,20.24
2019-03-31T03:53:54.709Z,20.25
2019-03-31T03:54:54.686Z,20.25
2019-03-31T03:55:54.720Z,20.23
2019-03-31T03:56:54.673Z,20.23
2019-03-31T03:57:54.662Z,20.23
2019-03-31T03:58:54.667Z,20.20
2019-03-31T03:59:54.642Z,20.23
2019-03-31T04:00:54.649Z,20.24
2019-03-31T04:01:54.668Z,20.23
2019-03-31T04:02:54.638Z,20.25
2019-03-31T04:03:54.617Z,20.21
2019-03-31T04:04:54.644Z,20.20
2019-03-31T04:05:54.579Z,20.20
2019-03-31T04:06:54.563Z,20.25
2019-03-31T04:07:54.595Z,20.16
2019-03-31T04:08:54.589Z,20.24
2019-03-31T04:09:54.522Z,20.24
2019-03-31T04:10:54.539Z,20.18
2019-03-31T04:11:54.526Z,20.20
2019-03-31T04:12:54.506Z,20.20
2019-03-31T04:13:54.494Z,20.25
2019-03-31T04:14:54.511Z,20.23
2019-03-31T04:15:54.504Z,20.27
2019-03-31T04:16:54.481Z,20.21
2019-03-31T04:17:54.454Z,20.25
2019-03-31T04:18:54.448Z,20.23
2019-03-31T04:19:54.416Z,20.25
2019-03-31T04:20:54.458Z,20.20
2019-03-31T04:21:54.419Z,20.23
2019-03-31T04:22:54.387Z,20.28
2019-03-31T04:23:54.403Z,20.24
2019-03-31T04:24:54.378Z,20.24
2019-03-31T04:25:54.368Z,20.27
2019-03-31T04:26:54.411Z,20.27
2019-03-31T04:27:54.475Z,20.18
2019-03-31T04:28:54.346Z,20.27
2019-03-31T04:29:54.349Z,20.27
2019-03-31T04:30:54.299Z,20.24
2019-03-31T04:31:54.210Z,20.23
2019-03-31T04:32:54.337Z,20.23
2019-03-31T04:33:54.182Z,20.20
2019-03-31T04:34:54.255Z,20.25
2019-03-31T04:35:54.336Z,20.27
2019-03-31T04:36:54.269Z,20.23
2019-03-31T04:37:54.226Z,20.23
2019-03-31T04:38:54.256Z,20.21
2019-03-31T04:39:54.205Z,20.20
2019-03-31T04:40:54.193Z,20.24
2019-03-31T04:41:54.190Z,20.25
2019-03-31T04:42:54.158Z,20.21
2019-03-31T04:43:54.162Z,20.16
2019-03-31T04:44:54.214Z,20.18
2019-03-31T04:45:54.144Z,20.21
2019-03-31T04:46:54.116Z,20.21
2019-03-31T04:47:54.023Z,20.20
2019-03-31T04:48:54.095Z,20.24
2019-03-31T04:49:53.994Z,20.23
2019-03-31T04:50:54.108Z,20.23
2019-03-31T04:51:54.080Z,20.20
2019-03-31T04:52:54.080Z,20.25
2019-03-31T04:53:54.050Z,20.21
2019-03-31T04:54:54.041Z,20.21
2019-03-31T04:55:54.029Z,20.27
2019-03-31T04:56:54.025Z,20.25
2019-03-31T04:57:54.019Z,20.28
2019-03-31T04:58:54.022Z,20.16
2019-03-31T04:59:53.989Z,20.20
2019-03-31T05:00:54.034Z,20.20
2019-03-31T05:01:53.967Z,20.21
2019-03-31T05:02:53.959Z,20.24
2019-03-31T05:04:04.596Z,20.15
2019-03-31T05:04:54.925Z,20.20
2019-03-31T05:05:53.916Z,20.23
2019-03-31T05:06:53.926Z,20.23
2019-03-31T05:07:53.891Z,20.20
2019-03-31T05:08:53.875Z,20.21
2019-03-31T05:09:53.884Z,20.15
2019-03-31T05:10:53.866Z,20.21
2019-03-31T05:11:53.867Z,20.21
2019-03-31T05:12:53.855Z,20.21
2019-03-31T05:13:53.831Z,20.20
2019-03-31T05:14:53.810Z,20.15
2019-03-31T05:15:53.798Z,20.18
2019-03-31T05:16:53.819Z,20.27
2019-03-31T05:17:53.828Z,20.18
2019-03-31T05:18:53.761Z,20.23
2019-03-31T05:19:53.754Z,20.20
2019-03-31T05:20:53.771Z,20.25
2019-03-31T05:21:53.726Z,20.20
2019-03-31T05:22:53.726Z,20.21
2019-03-31T05:23:53.790Z,20.23
2019-03-31T05:24:53.730Z,20.15
2019-03-31T05:25:53.707Z,20.20
2019-03-31T05:26:53.708Z,20.20
2019-03-31T05:27:53.678Z,20.27
2019-03-31T05:28:53.660Z,20.21
2019-03-31T05:29:53.699Z,20.20
2019-03-31T05:30:53.647Z,20.16
2019-03-31T05:31:53.659Z,20.25
2019-03-31T05:32:53.622Z,20.25
2019-03-31T05:33:53.598Z,20.21
2019-03-31T05:34:53.588Z,20.25
2019-03-31T05:35:53.608Z,20.23
2019-03-31T05:36:53.568Z,20.21
2019-03-31T05:37:53.588Z,20.23
2019-03-31T05:38:53.547Z,20.27
2019-03-31T05:39:53.543Z,20.24
2019-03-31T05:40:53.538Z,20.20
2019-03-31T05:41:53.523Z,20.25
2019-03-31T05:42:53.519Z,20.25
2019-03-31T05:44:05.060Z,20.23
2019-03-31T05:44:54.486Z,20.21
2019-03-31T05:45:53.511Z,20.23
2019-03-31T05:46:53.447Z,20.23
2019-03-31T05:47:53.446Z,20.23
2019-03-31T05:48:53.424Z,20.23
2019-03-31T05:49:53.514Z,20.24
2019-03-31T05:50:53.430Z,20.31
2019-03-31T05:51:53.413Z,20.24
2019-03-31T05:52:53.407Z,20.25
2019-03-31T05:53:53.404Z,20.28
2019-03-31T05:54:53.383Z,20.31
2019-03-31T05:55:53.394Z,20.23
2019-03-31T05:56:53.373Z,20.31
2019-03-31T05:57:53.355Z,20.34
2019-03-31T05:58:53.350Z,20.23
2019-03-31T05:59:53.317Z,20.33
2019-03-31T06:00:53.325Z,20.30
2019-03-31T06:01:53.355Z,20.33
2019-03-31T06:02:53.287Z,20.31
2019-03-31T06:03:53.355Z,20.33
2019-03-31T06:04:53.255Z,20.34
2019-03-31T06:05:53.263Z,20.33
2019-03-31T06:06:53.250Z,20.30
2019-03-31T06:07:53.272Z,20.30
2019-03-31T06:08:53.216Z,20.34
2019-03-31T06:09:53.123Z,20.35
2019-03-31T06:10:53.095Z,20.34
2019-03-31T06:11:53.657Z,20.34
2019-03-31T06:12:53.114Z,20.35
2019-03-31T06:13:53.165Z,20.33
2019-03-31T06:14:53.053Z,20.35
2019-03-31T06:15:53.103Z,20.34
2019-03-31T06:16:53.117Z,20.38
2019-03-31T06:17:53.023Z,20.38
2019-03-31T06:18:53.105Z,20.38
2019-03-31T06:19:53.078Z,20.38
2019-03-31T06:20:52.996Z,20.33
2019-03-31T06:21:52.968Z,20.39
2019-03-31T06:22:53.057Z,20.33
2019-03-31T06:23:53.074Z,20.41
2019-03-31T06:24:53.024Z,20.42
2019-03-31T06:25:52.987Z,20.39
2019-03-31T06:26:53.029Z,20.47
2019-03-31T06:27:52.920Z,20.38
2019-03-31T06:28:52.897Z,20.43
2019-03-31T06:29:52.974Z,20.39
2019-03-31T06:30:52.935Z,20.43
2019-03-31T06:31:53.000Z,20.39
2019-03-31T06:32:55.456Z,20.47
2019-03-31T06:33:52.851Z,20.42
2019-03-31T06:34:52.843Z,20.35
2019-03-31T06:35:52.834Z,20.35
2019-03-31T06:36:52.921Z,20.46
2019-03-31T06:37:52.899Z,20.50
2019-03-31T06:38:52.803Z,20.50
2019-03-31T06:39:52.780Z,20.51
2019-03-31T06:40:52.783Z,20.47
2019-03-31T06:41:52.768Z,20.50
2019-03-31T06:42:52.760Z,20.53
2019-03-31T06:43:52.800Z,20.51
2019-03-31T06:44:52.732Z,20.56
2019-03-31T06:45:52.708Z,20.49
2019-03-31T06:46:52.738Z,20.59
2019-03-31T06:47:52.684Z,20.64
2019-03-31T06:48:52.696Z,20.58
2019-03-31T06:49:52.717Z,20.71
2019-03-31T06:50:52.665Z,20.66
2019-03-31T06:51:52.658Z,20.69
2019-03-31T06:52:52.640Z,20.62
2019-03-31T06:53:52.722Z,20.59
2019-03-31T06:54:52.622Z,20.59
2019-03-31T06:55:52.669Z,20.61
2019-03-31T06:56:52.588Z,20.69
2019-03-31T06:57:52.638Z,20.69
2019-03-31T06:58:52.577Z,20.68
2019-03-31T06:59:52.727Z,20.71
2019-03-31T07:00:52.543Z,20.76
2019-03-31T07:01:52.568Z,20.72
2019-03-31T07:02:52.542Z,20.72
2019-03-31T07:03:52.528Z,20.71
2019-03-31T07:05:00.882Z,20.86
2019-03-31T07:05:53.707Z,20.74
2019-03-31T07:06:52.487Z,20.77
2019-03-31T07:07:52.514Z,20.87
2019-03-31T07:08:52.684Z,20.81
2019-03-31T07:09:52.450Z,20.89
2019-03-31T07:10:53.566Z,20.96
2019-03-31T07:11:52.522Z,20.87
2019-03-31T07:12:52.423Z,20.91
2019-03-31T07:13:52.411Z,20.90
2019-03-31T07:14:52.946Z,20.89
2019-03-31T07:15:52.384Z,20.96
2019-03-31T07:16:52.401Z,20.90
2019-03-31T07:17:52.487Z,20.89
2019-03-31T07:18:52.456Z,20.93
2019-03-31T07:19:52.339Z,20.87
2019-03-31T07:20:52.351Z,20.99
2019-03-31T07:21:52.454Z,20.95
2019-03-31T07:22:52.428Z,20.90
2019-03-31T07:23:52.303Z,20.96
2019-03-31T07:24:52.387Z,20.96
2019-03-31T07:25:52.279Z,20.96
2019-03-31T07:26:52.256Z,20.99
2019-03-31T07:27:52.288Z,21.06
2019-03-31T07:28:52.234Z,21.04
2019-03-31T07:29:52.276Z,21.05
2019-03-31T07:30:52.221Z,21.04
2019-03-31T07:31:52.209Z,21.06
2019-03-31T07:32:52.275Z,21.09
2019-03-31T07:33:52.215Z,21.16
2019-03-31T07:34:52.169Z,21.13
2019-03-31T07:35:52.306Z,21.09
2019-03-31T07:36:52.153Z,21.09
2019-03-31T07:37:52.185Z,21.05
2019-03-31T07:38:52.286Z,21.17
2019-03-31T07:39:52.345Z,21.20
2019-03-31T07:40:52.459Z,21.29
2019-03-31T07:41:52.410Z,21.20
2019-03-31T07:42:52.088Z,21.16
2019-03-31T07:43:52.080Z,21.26
2019-03-31T07:44:52.059Z,21.23
2019-03-31T07:45:56.013Z,21.30
2019-03-31T07:46:52.038Z,21.30
2019-03-31T07:47:52.139Z,21.26
2019-03-31T07:48:52.116Z,21.21
2019-03-31T07:49:52.008Z,21.30
2019-03-31T07:50:52.000Z,21.26
2019-03-31T07:51:52.041Z,21.30
2019-03-31T07:52:52.029Z,21.27
2019-03-31T07:53:51.968Z,21.35
2019-03-31T07:54:51.948Z,21.35
2019-03-31T07:55:51.969Z,21.36
2019-03-31T07:56:51.934Z,21.39
2019-03-31T07:57:54.519Z,21.41
2019-03-31T07:58:51.914Z,21.36
2019-03-31T07:59:51.952Z,21.44
2019-03-31T08:00:51.893Z,21.42
2019-03-31T08:01:51.873Z,21.42
2019-03-31T08:02:51.865Z,21.46
2019-03-31T08:03:51.914Z,21.46
2019-03-31T08:04:51.836Z,21.45
2019-03-31T08:05:51.824Z,21.48
2019-03-31T08:06:51.823Z,21.48
2019-03-31T08:07:51.817Z,21.51
2019-03-31T08:08:53.456Z,21.48
2019-03-31T08:09:51.800Z,21.51
2019-03-31T08:10:51.815Z,21.53
2019-03-31T08:11:51.765Z,21.57
2019-03-31T08:12:51.834Z,21.57
2019-03-31T08:13:55.079Z,21.60
2019-03-31T08:14:51.819Z,21.57
2019-03-31T08:15:51.725Z,21.54
2019-03-31T08:16:51.754Z,21.59
2019-03-31T08:17:51.712Z,21.60
2019-03-31T08:18:51.714Z,21.59
2019-03-31T08:19:51.691Z,21.64
2019-03-31T08:20:51.659Z,21.64
2019-03-31T08:21:51.764Z,21.66
2019-03-31T08:22:51.666Z,21.66
2019-03-31T08:23:51.737Z,21.71
2019-03-31T08:24:51.937Z,21.67
2019-03-31T08:25:51.971Z,21.67
2019-03-31T08:26:51.884Z,21.74
2019-03-31T08:27:51.951Z,21.69
2019-03-31T08:28:52.143Z,21.64
2019-03-31T08:30:00.170Z,21.72
2019-03-31T08:30:52.795Z,21.72
2019-03-31T08:31:51.837Z,21.78
2019-03-31T08:32:52.043Z,21.79
2019-03-31T08:33:51.506Z,21.76
2019-03-31T08:34:51.551Z,21.75
2019-03-31T08:35:51.600Z,21.67
2019-03-31T08:36:51.491Z,21.69
2019-03-31T08:37:51.578Z,21.67
2019-03-31T08:38:51.470Z,21.63
2019-03-31T08:39:51.475Z,21.59
2019-03-31T08:40:51.461Z,21.57
2019-03-31T08:41:51.450Z,21.56
2019-03-31T08:42:51.429Z,21.57
2019-03-31T08:43:51.403Z,21.51
2019-03-31T08:44:51.406Z,21.50
2019-03-31T08:45:51.528Z,21.45
2019-03-31T08:46:51.488Z,21.46
2019-03-31T08:47:51.479Z,21.39
2019-03-31T08:48:51.434Z,21.35
2019-03-31T08:49:51.437Z,21.34
2019-03-31T08:50:51.463Z,21.39
2019-03-31T08:51:51.524Z,21.42
2019-03-31T08:52:51.296Z,21.35
2019-03-31T08:53:51.314Z,21.38
2019-03-31T08:54:51.298Z,21.32
2019-03-31T08:55:51.296Z,21.30
2019-03-31T08:56:51.277Z,21.29
2019-03-31T08:57:51.405Z,21.32
2019-03-31T08:58:51.268Z,21.32
2019-03-31T08:59:51.266Z,21.35
2019-03-31T09:00:51.227Z,21.34
2019-03-31T09:01:51.218Z,21.32
2019-03-31T09:02:51.199Z,21.36
2019-03-31T09:03:51.270Z,21.38
2019-03-31T09:04:51.177Z,21.34
2019-03-31T09:06:01.649Z,21.34
2019-03-31T09:06:52.325Z,21.38
2019-03-31T09:07:51.260Z,21.42
2019-03-31T09:08:51.238Z,21.45
2019-03-31T09:09:51.239Z,21.48
2019-03-31T09:10:51.122Z,21.44
2019-03-31T09:11:51.232Z,21.45
2019-03-31T09:12:51.177Z,21.44
2019-03-31T09:13:51.186Z,21.56
2019-03-31T09:14:51.057Z,21.56
2019-03-31T09:15:51.214Z,21.54
2019-03-31T09:16:51.123Z,21.50
2019-03-31T09:17:54.046Z,21.54
2019-03-31T09:18:51.133Z,21.51
2019-03-31T09:19:51.035Z,21.53
2019-03-31T09:20:51.111Z,21.54
2019-03-31T09:21:51.138Z,21.61
2019-03-31T09:22:50.998Z,21.64
2019-03-31T09:23:50.969Z,21.63
2019-03-31T09:24:50.958Z,21.67
2019-03-31T09:25:50.956Z,21.63
2019-03-31T09:26:51.025Z,21.76
2019-03-31T09:27:50.988Z,21.64
2019-03-31T09:28:51.013Z,21.72
2019-03-31T09:29:51.012Z,21.79
2019-03-31T09:30:51.005Z,21.75
2019-03-31T09:31:50.970Z,21.74
2019-03-31T09:32:50.993Z,21.79
2019-03-31T09:33:51.016Z,21.82
2019-03-31T09:34:50.850Z,21.78
2019-03-31T09:35:50.933Z,21.82
2019-03-31T09:36:50.916Z,21.90
2019-03-31T09:37:50.913Z,21.83
2019-03-31T09:38:51.732Z,21.88
2019-03-31T09:39:50.853Z,21.83
2019-03-31T09:40:50.779Z,21.90
2019-03-31T09:41:50.867Z,21.90
2019-03-31T09:42:50.774Z,21.99
2019-03-31T09:43:50.743Z,21.98
2019-03-31T09:44:50.746Z,21.97
2019-03-31T09:45:50.771Z,21.99
2019-03-31T09:46:50.708Z,22.01
2019-03-31T09:47:50.739Z,22.02
2019-03-31T09:48:50.688Z,21.95
2019-03-31T09:49:50.686Z,22.01
2019-03-31T09:50:50.668Z,22.01
2019-03-31T09:51:50.671Z,21.99
2019-03-31T09:52:50.649Z,21.99
2019-03-31T09:53:50.684Z,22.01
2019-03-31T09:54:50.639Z,22.04
2019-03-31T09:55:50.637Z,22.01
2019-03-31T09:56:50.624Z,22.04
2019-03-31T09:57:50.612Z,22.02
2019-03-31T09:58:50.584Z,22.14
2019-03-31T09:59:50.723Z,22.22
2019-03-31T10:00:50.677Z,22.17
2019-03-31T10:01:50.545Z,22.19
2019-03-31T10:02:50.567Z,22.29
2019-03-31T10:03:50.532Z,22.29
2019-03-31T10:04:50.523Z,22.27
2019-03-31T10:05:50.546Z,22.35
2019-03-31T10:06:50.494Z,22.39
2019-03-31T10:07:50.607Z,22.35
2019-03-31T10:08:50.463Z,22.35
2019-03-31T10:09:50.462Z,22.35
2019-03-31T10:10:50.439Z,22.43
2019-03-31T10:11:50.549Z,22.43
2019-03-31T10:12:50.426Z,22.50
2019-03-31T10:13:50.424Z,22.50
2019-03-31T10:14:50.407Z,22.47
2019-03-31T10:15:50.381Z,22.60
2019-03-31T10:16:50.521Z,22.59
2019-03-31T10:17:50.378Z,22.71
2019-03-31T10:18:50.460Z,22.72
2019-03-31T10:19:50.357Z,22.75
2019-03-31T10:20:50.340Z,22.83
2019-03-31T10:21:50.328Z,22.77
2019-03-31T10:22:50.322Z,22.83
2019-03-31T10:23:50.307Z,22.83
2019-03-31T10:24:50.335Z,22.96
2019-03-31T10:25:50.288Z,22.99
2019-03-31T10:26:50.257Z,22.96
2019-03-31T10:27:50.274Z,23.12
2019-03-31T10:28:50.330Z,23.01
2019-03-31T10:29:50.239Z,23.07
2019-03-31T10:30:50.274Z,23.14
2019-03-31T10:31:50.260Z,23.22
2019-03-31T10:32:50.202Z,23.34
2019-03-31T10:33:50.200Z,23.35
2019-03-31T10:34:50.178Z,23.40
2019-03-31T10:35:50.180Z,23.47
2019-03-31T10:36:50.189Z,23.47
2019-03-31T10:37:50.161Z,23.52
2019-03-31T10:38:50.161Z,23.61
2019-03-31T10:39:50.140Z,23.58
2019-03-31T10:40:50.122Z,23.68
2019-03-31T10:41:50.151Z,23.52
2019-03-31T10:42:50.107Z,23.57
2019-03-31T10:43:50.103Z,23.62
2019-03-31T10:44:50.087Z,23.61
2019-03-31T10:45:50.150Z,23.58
2019-03-31T10:46:50.163Z,23.64
2019-03-31T10:47:50.164Z,23.60
2019-03-31T10:48:50.113Z,23.55
2019-03-31T10:49:50.113Z,23.61
2019-03-31T10:50:50.113Z,23.57
2019-03-31T10:51:50.098Z,23.57
2019-03-31T10:52:50.076Z,23.57
2019-03-31T10:53:50.169Z,23.55
2019-03-31T10:54:50.094Z,23.61
2019-03-31T10:55:50.068Z,23.47
2019-03-31T10:56:49.942Z,23.45
2019-03-31T10:57:50.017Z,23.47
2019-03-31T10:58:50.036Z,23.45
2019-03-31T10:59:49.988Z,23.50
2019-03-31T11:00:49.998Z,23.49
2019-03-31T11:01:49.980Z,23.49
2019-03-31T11:02:49.992Z,23.39
2019-03-31T11:03:49.975Z,23.42
2019-03-31T11:04:49.988Z,23.40
2019-03-31T11:05:49.945Z,23.42
2019-03-31T11:06:58.775Z,23.42
2019-03-31T11:07:50.927Z,23.43
2019-03-31T11:08:49.921Z,23.34
2019-03-31T11:09:49.893Z,23.42
2019-03-31T11:10:49.942Z,23.39
2019-03-31T11:11:49.870Z,23.34
2019-03-31T11:12:50.908Z,23.43
2019-03-31T11:13:49.856Z,23.35
2019-03-31T11:14:49.868Z,23.39
2019-03-31T11:15:49.838Z,23.31
2019-03-31T11:16:49.861Z,23.31
2019-03-31T11:17:49.818Z,23.40
2019-03-31T11:18:49.825Z,23.34
2019-03-31T11:19:49.797Z,23.38
2019-03-31T11:20:49.783Z,23.31
2019-03-31T11:21:49.769Z,23.31
2019-03-31T11:22:49.836Z,23.34
2019-03-31T11:23:49.779Z,23.32
2019-03-31T11:24:49.745Z,23.34
2019-03-31T11:25:49.735Z,23.29
2019-03-31T11:26:49.725Z,23.32
2019-03-31T11:27:49.705Z,23.32
2019-03-31T11:28:49.702Z,23.38
2019-03-31T11:29:49.733Z,23.29
2019-03-31T11:30:49.674Z,23.34
2019-03-31T11:31:49.656Z,23.38
2019-03-31T11:32:49.737Z,23.38
2019-03-31T11:33:49.637Z,23.34
2019-03-31T11:34:49.645Z,23.31
2019-03-31T11:35:49.647Z,23.31
2019-03-31T11:36:49.586Z,23.31
2019-03-31T11:37:49.603Z,23.35
2019-03-31T11:38:49.583Z,23.34
2019-03-31T11:39:49.558Z,23.32
2019-03-31T11:40:49.550Z,23.38
2019-03-31T11:41:49.600Z,23.32
2019-03-31T11:42:49.547Z,23.38
2019-03-31T11:43:49.563Z,23.32
2019-03-31T11:44:49.502Z,23.31
2019-03-31T11:45:49.507Z,23.34
2019-03-31T11:46:49.487Z,23.34
2019-03-31T11:47:49.462Z,23.34
2019-03-31T11:48:49.464Z,23.32
2019-03-31T11:49:49.513Z,23.35
2019-03-31T11:50:49.449Z,23.34
2019-03-31T11:51:49.422Z,23.38
2019-03-31T11:52:49.419Z,23.32
2019-03-31T11:53:49.392Z,23.34
2019-03-31T11:54:49.391Z,23.31
2019-03-31T11:55:49.441Z,23.35
2019-03-31T11:56:49.353Z,23.32
2019-03-31T11:57:49.364Z,23.38
2019-03-31T11:58:49.347Z,23.27
2019-03-31T11:59:49.852Z,23.34
2019-03-31T12:00:49.371Z,23.34
2019-03-31T12:01:49.353Z,23.38
2019-03-31T12:02:49.330Z,23.32
2019-03-31T12:03:49.330Z,23.31
2019-03-31T12:04:49.273Z,23.32
2019-03-31T12:05:49.264Z,23.27
2019-03-31T12:06:49.280Z,23.29
2019-03-31T12:07:49.315Z,23.23
2019-03-31T12:08:49.242Z,23.26
2019-03-31T12:09:49.250Z,23.24
2019-03-31T12:10:49.211Z,23.31
2019-03-31T12:11:49.197Z,23.26
2019-03-31T12:12:49.215Z,23.26
2019-03-31T12:13:49.219Z,23.20
2019-03-31T12:14:59.797Z,23.23
2019-03-31T12:15:50.144Z,23.29
2019-03-31T12:16:49.145Z,23.22
2019-03-31T12:17:49.130Z,23.23
2019-03-31T12:18:49.129Z,23.26
2019-03-31T12:19:49.162Z,23.23
2019-03-31T12:20:49.146Z,23.26
2019-03-31T12:21:49.106Z,23.31
2019-03-31T12:22:49.095Z,23.24
2019-03-31T12:23:49.085Z,23.27
2019-03-31T12:24:49.057Z,23.27
2019-03-31T12:25:49.067Z,23.27
2019-03-31T12:26:49.092Z,23.34
2019-03-31T12:27:49.073Z,23.27
2019-03-31T12:28:49.029Z,23.22
2019-03-31T12:29:49.000Z,23.23
2019-03-31T12:30:48.990Z,23.31
2019-03-31T12:31:49.003Z,23.26
2019-03-31T12:32:48.995Z,23.20
2019-03-31T12:33:49.022Z,23.24
2019-03-31T12:34:49.002Z,23.24
2019-03-31T12:35:48.937Z,23.22
2019-03-31T12:36:48.978Z,23.23
2019-03-31T12:37:48.928Z,23.22
2019-03-31T12:38:48.918Z,23.22
2019-03-31T12:39:48.942Z,23.26
2019-03-31T12:40:48.877Z,23.20
2019-03-31T12:41:48.875Z,23.22
2019-03-31T12:42:48.870Z,23.19
2019-03-31T12:43:48.858Z,23.27
2019-03-31T12:44:48.847Z,23.26
2019-03-31T12:45:48.859Z,23.24
2019-03-31T12:46:48.812Z,23.24
2019-03-31T12:47:48.866Z,23.22
2019-03-31T12:48:48.800Z,23.19
2019-03-31T12:49:48.774Z,23.19
2019-03-31T12:50:48.780Z,23.27
2019-03-31T12:51:48.755Z,23.26
2019-03-31T12:52:51.150Z,23.22